Williams Field, Antarctica

9:51 PM NZDT on November 27, 2014 (GMT +1300)
ANTARCTICA | Change Station
CLOSE
Current Station
Personal Weather Station
Location: Scott Base, Ross Island
Elevation: 63 ft
Nearby Weather Stations

Elev 63 ft 77.85 °S, 166.80 °E | Updated 6 minutes ago

Mostly Cloudy
Mostly Cloudy
16.4 °F
Feels Like 3 °F
N
13.0
Wind Variable Wind from NNE
Gusts 13.0 mph

Today
High -- | Low -- °F
--% Chance of Precip.
Yesterday
High -- | Low -- °F
Precip. -- in
12:00 PM 12:00 PM
Waxing Crescent, 27% visible
Pressure 29.23 in
Visibility 6.2 miles
Clouds Few 1500 ft
Scattered Clouds 4000 ft
Mostly Cloudy 8000 ft
Windchill 3 °F
Dew Point 12 °F
Humidity 82%
Rainfall 0.00 in
Snow Depth Not available.
UV 1 out of 12
Pollen Not available.
Air Quality Not available.
Flu Activity Not available.
METAR NZCM 270555Z 05012KT 9999 FEW015 SCT040 BKN080 M08/M12 A2922 RMK SLP898 SN DSNT S AND SW-W AND NW

More Conditions Fewer Conditions

Pressure 29.23 in
Visibility 6.2 miles
Clouds Few 1500 ft
Scattered Clouds 4000 ft
Mostly Cloudy 8000 ft
Windchill 3 °F
Dew Point 12 °F
Humidity 82%
Rainfall 0.00 in
Snow Depth Not available.
UV 1 out of 12
Pollen Not available.
Air Quality Not available.
Flu Activity Not available.
METAR NZCM 270555Z 05012KT 9999 FEW015 SCT040 BKN080 M08/M12 A2922 RMK SLP898 SN DSNT S AND SW-W AND NW

More Conditions Fewer Conditions

10-Day Weather Forecast

Almanac

Astronomy

Nov. 27, 2014 Rise Set
Actual Time
Civil Twilight
Nautical Twilight
Astronomical Twilight
Moon
Length of Visible Light
Length of Day
Tomorrow will be .
, % of the Moon is Illuminated

Today's Extremes

Country Highs Country Lows

Community

WunderPhotos

Upload Photos

1,773,965 photos uploaded!

WunderBlogs® & News

Nearby

Air Quality

  Air Quality AQ Index Pollutant
Not available.

Snow Depth

Station Depth Elevation

Earthquake Activity

City Distance Mag. Time & Date
Minimum magnitude displayed is 2.5.

Coastal Water Temperatures

Place Temperature

Nearby Weather Stations